Dorval, Canada
Current Conditions -  °F | °C
As of 6:00 AM on Friday 31 Oct 2014 (Local Time) from CYUL Reporting Station
Overcast Overcast  
Wind Chill: 36°   Ceiling: 13000
Heat Index: 36°   Visibility: 15mi
Dew Point: 30°   Wind: 3mph
Humidity: 81%   Direction: 330°NNW
Pressure: 30.04"   Gusts: NA
Location:  45.45°N, 73.75°W
Report Text: CYUL 311000Z 33003KT 15SM FEW040 OVC130 02/M01 A3004 RMK SC1AS7 SLP175
Loading
Personal Weather Stations






























Interactive Weather Map
Tropical Storm Tracking
New forecast layout! Learn more

10-Day Weather Forecast

Advertisements
Track Severe Weather on mobile